createdAt,value
2023-04-02T00:02:21.878Z,9.30
2023-04-02T00:05:18.018Z,9.30
2023-04-02T00:07:49.036Z,9.30
2023-04-02T00:10:53.871Z,9.30
2023-04-02T00:13:38.833Z,9.30
2023-04-02T00:16:09.355Z,9.20
2023-04-02T00:18:44.255Z,9.20
2023-04-02T00:21:20.662Z,9.20
2023-04-02T00:23:47.388Z,9.10
2023-04-02T00:26:29.632Z,9.10
2023-04-02T00:28:56.239Z,9.10
2023-04-02T00:31:24.222Z,9.10
2023-04-02T00:33:51.020Z,9.10
2023-04-02T00:36:21.956Z,9.10
2023-04-02T00:38:49.252Z,9.10
2023-04-02T00:41:23.042Z,9.00
2023-04-02T00:43:51.240Z,9.00
2023-04-02T00:46:25.528Z,9.00
2023-04-02T00:49:08.867Z,9.00
2023-04-02T00:51:58.165Z,9.00
2023-04-02T00:54:31.327Z,9.00
2023-04-02T00:56:58.451Z,9.00
2023-04-02T00:59:36.612Z,9.00
2023-04-02T01:02:17.160Z,8.90
2023-04-02T01:04:57.567Z,8.90
2023-04-02T01:07:49.018Z,8.80
2023-04-02T01:10:54.160Z,8.80
2023-04-02T01:13:37.052Z,8.80
2023-04-02T01:16:38.609Z,8.70
2023-04-02T01:19:42.280Z,8.70
2023-04-02T01:22:35.010Z,8.70
2023-04-02T01:25:04.508Z,8.70
2023-04-02T01:27:50.386Z,8.70
2023-04-02T01:30:18.233Z,8.70
2023-04-02T01:32:45.274Z,8.80
2023-04-02T01:35:12.355Z,8.80
2023-04-02T01:38:10.300Z,8.80
2023-04-02T01:40:46.480Z,8.80
2023-04-02T01:43:32.223Z,8.80
2023-04-02T01:46:00.141Z,8.70
2023-04-02T01:48:30.229Z,8.70
2023-04-02T01:50:59.601Z,8.70
2023-04-02T01:53:29.693Z,8.70
2023-04-02T01:56:02.570Z,8.70
2023-04-02T01:58:32.295Z,8.70
2023-04-02T02:01:07.210Z,8.70
2023-04-02T02:03:44.306Z,8.70
2023-04-02T02:06:16.515Z,8.60
2023-04-02T02:08:55.480Z,8.60
2023-04-02T02:11:26.792Z,8.60
2023-04-02T02:14:01.185Z,8.60
2023-04-02T02:16:31.834Z,8.60
2023-04-02T02:19:02.760Z,8.60
2023-04-02T02:21:43.796Z,8.50
2023-04-02T02:24:25.833Z,8.50
2023-04-02T02:27:24.347Z,8.60
2023-04-02T02:29:59.767Z,8.50
2023-04-02T02:32:30.927Z,8.60
2023-04-02T02:35:19.035Z,8.60
2023-04-02T02:37:55.628Z,8.60
2023-04-02T02:40:34.716Z,8.60
2023-04-02T02:43:04.354Z,8.50
2023-04-02T02:45:38.630Z,8.60
2023-04-02T02:48:12.222Z,8.50
2023-04-02T02:50:39.981Z,8.60
2023-04-02T02:53:21.865Z,8.60
2023-04-02T02:55:55.880Z,8.50
2023-04-02T02:58:31.273Z,8.50
2023-04-02T03:00:58.154Z,8.50
2023-04-02T03:03:30.184Z,8.50
2023-04-02T03:06:02.706Z,8.50
2023-04-02T03:08:45.274Z,8.50
2023-04-02T03:11:40.869Z,8.60
2023-04-02T03:14:47.878Z,8.50
2023-04-02T03:17:53.741Z,8.50
2023-04-02T03:21:15.971Z,8.50
2023-04-02T03:23:51.447Z,8.60
2023-04-02T03:26:22.836Z,8.50
2023-04-02T03:29:07.430Z,8.40
2023-04-02T03:32:00.761Z,8.50
2023-04-02T03:34:44.057Z,8.50
2023-04-02T03:37:43.636Z,8.40
2023-04-02T03:40:39.167Z,8.50
2023-04-02T03:43:24.102Z,8.50
2023-04-02T03:46:19.922Z,8.50
2023-04-02T03:48:52.967Z,8.50
2023-04-02T03:51:50.720Z,8.40
2023-04-02T03:54:17.773Z,8.40
2023-04-02T03:56:47.397Z,8.50
2023-04-02T03:59:23.085Z,8.60
2023-04-02T04:01:59.207Z,8.60
2023-04-02T04:04:29.122Z,8.50
2023-04-02T04:06:57.297Z,8.50
2023-04-02T04:09:33.225Z,8.50
2023-04-02T04:12:15.379Z,8.50
2023-04-02T04:14:51.035Z,8.50
2023-04-02T04:17:51.262Z,8.50
2023-04-02T04:20:24.712Z,8.50
2023-04-02T04:22:55.691Z,8.60
2023-04-02T04:25:29.824Z,8.60
2023-04-02T04:28:24.065Z,8.60
2023-04-02T04:31:21.119Z,8.60
2023-04-02T04:33:54.883Z,8.60
2023-04-02T04:36:31.458Z,8.60
2023-04-02T04:39:07.351Z,8.60
2023-04-02T04:41:37.671Z,8.60
2023-04-02T04:45:02.656Z,8.60
2023-04-02T04:47:35.847Z,8.50
2023-04-02T04:50:31.107Z,8.50
2023-04-02T04:53:23.608Z,8.50
2023-04-02T04:55:55.056Z,8.40
2023-04-02T04:58:47.493Z,8.30
2023-04-02T05:01:34.750Z,8.20
2023-04-02T05:04:11.369Z,8.00
2023-04-02T05:06:45.447Z,8.00
2023-04-02T05:09:30.346Z,7.90
2023-04-02T05:12:59.482Z,7.80
2023-04-02T05:15:34.892Z,7.90
2023-04-02T05:18:18.023Z,7.90
2023-04-02T05:20:57.715Z,7.70
2023-04-02T05:23:29.965Z,7.70
2023-04-02T05:26:15.013Z,7.50
2023-04-02T05:28:50.424Z,7.60
2023-04-02T05:31:55.935Z,7.60
2023-04-02T05:34:29.628Z,7.60
2023-04-02T05:36:56.368Z,7.70
2023-04-02T05:39:25.608Z,7.60
2023-04-02T05:42:03.740Z,7.50
2023-04-02T05:44:34.988Z,7.60
2023-04-02T05:47:13.049Z,7.60
2023-04-02T05:49:43.915Z,7.60
2023-04-02T05:52:25.547Z,7.70
2023-04-02T05:54:59.273Z,7.60
2023-04-02T05:57:44.604Z,7.60
2023-04-02T06:00:39.109Z,7.60
2023-04-02T06:03:56.310Z,7.60
2023-04-02T06:06:41.668Z,7.50
2023-04-02T06:09:27.490Z,7.30
2023-04-02T06:12:19.792Z,7.40
2023-04-02T06:14:46.608Z,7.40
2023-04-02T06:17:17.353Z,7.30
2023-04-02T06:19:45.690Z,7.30
2023-04-02T06:22:38.466Z,7.20
2023-04-02T06:25:31.150Z,7.30
2023-04-02T06:28:01.693Z,7.20
2023-04-02T06:30:36.397Z,7.40
2023-04-02T06:33:05.488Z,7.30
2023-04-02T06:35:41.231Z,7.40
2023-04-02T06:38:25.342Z,7.40
2023-04-02T06:41:05.787Z,7.50
2023-04-02T06:43:38.564Z,7.30
2023-04-02T06:46:19.222Z,7.40
2023-04-02T06:48:47.787Z,7.50
2023-04-02T06:51:20.939Z,7.20
2023-04-02T06:53:49.993Z,7.20
2023-04-02T06:56:56.604Z,7.00
2023-04-02T06:59:25.160Z,7.00
2023-04-02T07:02:03.619Z,7.00
2023-04-02T07:04:30.521Z,7.00
2023-04-02T07:06:57.136Z,7.10
2023-04-02T07:09:23.795Z,7.10
2023-04-02T07:11:50.664Z,7.20
2023-04-02T07:14:17.260Z,7.10
2023-04-02T07:16:44.416Z,7.00
2023-04-02T07:19:22.594Z,7.00
2023-04-02T07:21:49.641Z,7.10
2023-04-02T07:24:16.246Z,7.10
2023-04-02T07:26:42.930Z,7.10
2023-04-02T07:29:15.830Z,7.00
2023-04-02T07:31:43.163Z,7.00
2023-04-02T07:34:10.345Z,7.00
2023-04-02T07:36:37.101Z,6.90
2023-04-02T07:39:04.413Z,6.90
2023-04-02T07:41:31.079Z,6.90
2023-04-02T07:43:57.771Z,6.90
2023-04-02T07:46:25.709Z,6.90
2023-04-02T07:48:52.331Z,6.90
2023-04-02T07:51:22.631Z,7.00
2023-04-02T07:53:50.933Z,7.00
2023-04-02T07:56:19.843Z,7.00
2023-04-02T07:58:46.970Z,6.90
2023-04-02T08:01:21.168Z,6.90
2023-04-02T08:03:47.922Z,7.00
2023-04-02T08:06:14.676Z,6.90
2023-04-02T08:08:42.046Z,7.00
2023-04-02T08:11:09.553Z,7.00
2023-04-02T08:13:36.512Z,7.00
2023-04-02T08:16:05.544Z,7.10
2023-04-02T08:18:32.793Z,7.00
2023-04-02T08:20:59.927Z,7.00
2023-04-02T08:23:27.286Z,6.80
2023-04-02T08:25:54.997Z,6.60
2023-04-02T08:28:22.848Z,6.50
2023-04-02T08:30:50.170Z,6.50
2023-04-02T08:33:17.974Z,6.50
2023-04-02T08:35:47.000Z,6.50
2023-04-02T08:38:19.644Z,6.40
2023-04-02T08:40:51.245Z,6.50
2023-04-02T08:43:54.495Z,6.50
2023-04-02T08:46:57.984Z,6.50
2023-04-02T08:49:39.160Z,6.40
2023-04-02T08:52:05.819Z,6.60
2023-04-02T08:54:42.599Z,6.60
2023-04-02T08:57:44.178Z,6.50
2023-04-02T09:00:36.797Z,6.70
2023-04-02T09:03:35.199Z,6.90
2023-04-02T09:06:03.813Z,7.00
2023-04-02T09:08:32.487Z,7.00
2023-04-02T09:11:22.713Z,6.90
2023-04-02T09:14:01.683Z,7.00
2023-04-02T09:16:44.464Z,7.00
2023-04-02T09:19:19.300Z,7.00
2023-04-02T09:22:23.173Z,7.00
2023-04-02T09:24:58.773Z,7.10
2023-04-02T09:27:30.106Z,7.30
2023-04-02T09:30:11.343Z,7.40
2023-04-02T09:33:07.076Z,7.40
2023-04-02T09:35:36.895Z,7.30
2023-04-02T09:38:31.323Z,7.20
2023-04-02T09:41:03.563Z,7.30
2023-04-02T09:43:36.722Z,7.30
2023-04-02T09:46:24.910Z,7.20
2023-04-02T09:49:01.362Z,7.20
2023-04-02T09:51:33.102Z,7.30
2023-04-02T09:54:05.761Z,7.50
2023-04-02T09:56:38.410Z,7.50
2023-04-02T09:59:17.832Z,7.60
2023-04-02T10:02:04.354Z,7.80
2023-04-02T10:04:45.827Z,7.90
2023-04-02T10:07:47.728Z,7.80
2023-04-02T10:10:30.863Z,7.60
2023-04-02T10:13:09.510Z,7.30
2023-04-02T10:16:00.298Z,7.20
2023-04-02T10:18:47.319Z,7.00
2023-04-02T10:21:27.130Z,7.00
2023-04-02T10:23:55.578Z,7.00
2023-04-02T10:26:48.312Z,7.10
2023-04-02T10:29:47.191Z,7.00
2023-04-02T10:32:23.426Z,6.70
2023-04-02T10:35:01.684Z,6.80
2023-04-02T10:37:57.455Z,6.90
2023-04-02T10:40:47.499Z,7.10
2023-04-02T10:43:43.386Z,7.20
2023-04-02T10:46:28.436Z,7.00
2023-04-02T10:49:14.061Z,7.00
2023-04-02T10:52:21.462Z,6.90
2023-04-02T10:54:54.917Z,6.80
2023-04-02T10:57:38.340Z,6.70
2023-04-02T11:00:18.623Z,6.90
2023-04-02T11:03:09.270Z,7.00
2023-04-02T11:05:50.731Z,7.10
2023-04-02T11:08:31.508Z,7.20
2023-04-02T11:11:18.090Z,7.20
2023-04-02T11:14:00.768Z,7.40
2023-04-02T11:16:27.678Z,7.20
2023-04-02T11:19:16.368Z,7.20
2023-04-02T11:21:59.457Z,7.10
2023-04-02T11:24:30.160Z,7.20
2023-04-02T11:27:12.305Z,7.10
2023-04-02T11:30:02.708Z,7.00
2023-04-02T11:32:39.110Z,7.10
2023-04-02T11:35:35.201Z,7.00
2023-04-02T11:38:09.253Z,7.10
2023-04-02T11:40:51.635Z,7.40
2023-04-02T11:43:33.563Z,7.50
2023-04-02T11:46:16.364Z,7.30
2023-04-02T11:48:43.570Z,7.20
2023-04-02T11:51:22.676Z,7.10
2023-04-02T11:53:52.002Z,7.20
2023-04-02T11:56:21.664Z,7.10
2023-04-02T11:59:03.386Z,7.20
2023-04-02T12:01:45.230Z,7.30
2023-04-02T12:04:28.016Z,7.30
2023-04-02T12:07:34.594Z,7.20
2023-04-02T12:10:52.493Z,7.00
2023-04-02T12:13:38.985Z,6.90
2023-04-02T12:16:08.529Z,7.00
2023-04-02T12:18:35.741Z,7.00
2023-04-02T12:21:02.971Z,7.10
2023-04-02T12:23:33.695Z,7.20
2023-04-02T12:26:14.388Z,7.30
2023-04-02T12:28:42.360Z,7.20
2023-04-02T12:31:08.928Z,7.20
2023-04-02T12:33:41.120Z,7.00
2023-04-02T12:36:23.637Z,6.80
2023-04-02T12:38:56.590Z,6.80
2023-04-02T12:41:27.147Z,6.80
2023-04-02T12:44:00.235Z,6.90
2023-04-02T12:46:30.945Z,6.90
2023-04-02T12:49:38.772Z,6.90
2023-04-02T12:52:13.373Z,6.90
2023-04-02T12:54:48.647Z,7.00
2023-04-02T12:57:25.285Z,7.10
2023-04-02T13:00:21.676Z,6.90
2023-04-02T13:02:51.211Z,6.80
2023-04-02T13:05:46.945Z,6.50
2023-04-02T13:08:27.037Z,6.50
2023-04-02T13:11:03.880Z,6.60
2023-04-02T13:13:37.470Z,6.50
2023-04-02T13:16:29.533Z,6.50
2023-04-02T13:19:29.719Z,6.50
2023-04-02T13:21:59.779Z,6.40
2023-04-02T13:24:32.247Z,6.30
2023-04-02T13:27:03.552Z,6.30
2023-04-02T13:29:34.496Z,6.50
2023-04-02T13:32:07.682Z,6.60
2023-04-02T13:34:34.337Z,6.60
2023-04-02T13:37:00.995Z,6.60
2023-04-02T13:39:30.052Z,6.50
2023-04-02T13:41:59.177Z,6.50
2023-04-02T13:44:30.620Z,6.40
2023-04-02T13:46:58.518Z,6.50
2023-04-02T13:49:27.395Z,6.50
2023-04-02T13:51:58.623Z,6.70
2023-04-02T13:54:38.132Z,6.80
2023-04-02T13:57:04.803Z,6.90
2023-04-02T13:59:31.453Z,6.80
2023-04-02T14:02:16.955Z,6.80
2023-04-02T14:04:50.592Z,6.80
2023-04-02T14:08:03.158Z,6.90
2023-04-02T14:11:03.587Z,7.00
2023-04-02T14:13:57.725Z,7.10
2023-04-02T14:16:50.510Z,6.90
2023-04-02T14:19:43.943Z,6.60
2023-04-02T14:22:43.402Z,6.60
2023-04-02T14:25:45.708Z,6.50
2023-04-02T14:28:42.519Z,6.30
2023-04-02T14:31:18.700Z,6.30
2023-04-02T14:35:01.919Z,6.40
2023-04-02T14:38:02.267Z,6.50
2023-04-02T14:40:56.570Z,6.60
2023-04-02T14:43:31.685Z,6.50
2023-04-02T14:46:05.359Z,6.40
2023-04-02T14:48:55.770Z,6.20
2023-04-02T14:51:43.810Z,6.10
2023-04-02T14:54:32.365Z,6.10
2023-04-02T14:57:18.813Z,6.00
2023-04-02T15:00:03.951Z,6.10
2023-04-02T15:02:42.680Z,6.00
2023-04-02T15:05:34.196Z,6.00
2023-04-02T15:08:23.907Z,6.00
2023-04-02T15:11:12.301Z,6.00
2023-04-02T15:14:07.187Z,6.10
2023-04-02T15:16:36.227Z,6.00
2023-04-02T15:19:11.441Z,5.80
2023-04-02T15:22:14.305Z,5.70
2023-04-02T15:24:43.416Z,5.90
2023-04-02T15:27:34.822Z,5.80
2023-04-02T15:30:15.144Z,5.90
2023-04-02T15:32:43.440Z,5.80
2023-04-02T15:35:31.482Z,5.60
2023-04-02T15:38:24.643Z,5.50
2023-04-02T15:40:57.629Z,5.50
2023-04-02T15:44:07.982Z,5.60
2023-04-02T15:47:17.764Z,5.60
2023-04-02T15:50:11.928Z,5.80
2023-04-02T15:52:47.363Z,5.90
2023-04-02T15:55:33.346Z,6.10
2023-04-02T15:58:25.529Z,6.10
2023-04-02T16:01:37.176Z,6.00
2023-04-02T16:04:49.307Z,6.00
2023-04-02T16:08:11.319Z,6.00
2023-04-02T16:10:43.026Z,5.80
2023-04-02T16:13:36.736Z,5.90
2023-04-02T16:16:20.914Z,5.90
2023-04-02T16:19:20.855Z,5.80
2023-04-02T16:22:03.227Z,5.80
2023-04-02T16:24:29.880Z,5.80
2023-04-02T16:27:14.916Z,5.90
2023-04-02T16:29:54.935Z,5.70
2023-04-02T16:32:47.481Z,5.50
2023-04-02T16:35:59.218Z,5.50
2023-04-02T16:39:14.941Z,5.60
2023-04-02T16:42:51.946Z,5.70
2023-04-02T16:45:32.985Z,5.70
2023-04-02T16:48:33.102Z,5.80
2023-04-02T16:51:28.374Z,5.60
2023-04-02T16:54:11.257Z,5.50
2023-04-02T16:57:29.166Z,5.60
2023-04-02T17:00:25.580Z,5.50
2023-04-02T17:03:47.970Z,5.50
2023-04-02T17:06:40.311Z,5.40
2023-04-02T17:09:22.086Z,5.30
2023-04-02T17:11:55.499Z,5.40
2023-04-02T17:14:24.202Z,5.40
2023-04-02T17:16:56.239Z,5.40
2023-04-02T17:19:27.521Z,5.30
2023-04-02T17:22:00.500Z,5.30
2023-04-02T17:24:33.797Z,5.40
2023-04-02T17:27:15.235Z,5.30
2023-04-02T17:29:55.338Z,5.30
2023-04-02T17:32:26.205Z,5.30
2023-04-02T17:34:53.957Z,5.30
2023-04-02T17:37:27.485Z,5.30
2023-04-02T17:40:22.459Z,5.10
2023-04-02T17:43:20.168Z,5.00
2023-04-02T17:45:56.965Z,5.00
2023-04-02T17:48:38.440Z,5.00
2023-04-02T17:51:30.110Z,5.00
2023-04-02T17:54:18.476Z,5.00
2023-04-02T17:57:41.063Z,5.10
2023-04-02T18:00:58.724Z,4.90
2023-04-02T18:04:13.332Z,5.00
2023-04-02T18:07:24.743Z,5.00
2023-04-02T18:10:31.279Z,5.10
2023-04-02T18:13:41.403Z,5.10
2023-04-02T18:16:52.622Z,5.20
2023-04-02T18:19:56.784Z,5.30
2023-04-02T18:22:49.619Z,5.20
2023-04-02T18:25:47.402Z,5.20
2023-04-02T18:28:49.083Z,5.20
2023-04-02T18:31:37.949Z,5.10
2023-04-02T18:34:41.830Z,5.00
2023-04-02T18:37:32.638Z,5.00
2023-04-02T18:40:23.321Z,5.00
2023-04-02T18:43:24.967Z,5.00
2023-04-02T18:46:19.454Z,4.90
2023-04-02T18:49:04.310Z,5.00
2023-04-02T18:51:35.893Z,5.00
2023-04-02T18:54:35.016Z,5.00
2023-04-02T18:57:14.106Z,5.00
2023-04-02T19:00:05.653Z,5.10
2023-04-02T19:02:47.573Z,5.10
2023-04-02T19:05:36.236Z,5.10
2023-04-02T19:08:27.548Z,5.10
2023-04-02T19:11:11.826Z,5.10
2023-04-02T19:13:38.430Z,5.20
2023-04-02T19:16:26.009Z,5.10
2023-04-02T19:19:27.902Z,5.00
2023-04-02T19:22:14.534Z,5.10
2023-04-02T19:25:18.595Z,5.00
2023-04-02T19:27:57.959Z,4.90
2023-04-02T19:30:58.883Z,4.90
2023-04-02T19:34:20.945Z,4.90
2023-04-02T19:37:17.994Z,4.90
2023-04-02T19:39:56.249Z,4.80
2023-04-02T19:42:47.033Z,4.70
2023-04-02T19:45:38.635Z,4.70
2023-04-02T19:48:27.909Z,4.60
2023-04-02T19:50:54.600Z,4.60
2023-04-02T19:53:21.301Z,4.60
2023-04-02T19:55:50.794Z,4.50
2023-04-02T19:58:30.591Z,4.50
2023-04-02T20:00:57.368Z,4.40
2023-04-02T20:03:24.435Z,4.40
2023-04-02T20:05:52.056Z,4.40
2023-04-02T20:08:18.760Z,4.40
2023-04-02T20:10:46.078Z,4.30
2023-04-02T20:13:13.392Z,4.30
2023-04-02T20:15:40.918Z,4.30
2023-04-02T20:18:10.195Z,4.30
2023-04-02T20:20:38.994Z,4.30
2023-04-02T20:23:05.914Z,4.20
2023-04-02T20:25:32.592Z,4.20
2023-04-02T20:28:00.838Z,4.20
2023-04-02T20:30:27.555Z,4.10
2023-04-02T20:32:55.515Z,4.00
2023-04-02T20:35:22.307Z,3.90
2023-04-02T20:37:48.976Z,3.90
2023-04-02T20:40:17.356Z,3.90
2023-04-02T20:42:44.003Z,4.00
2023-04-02T20:45:10.960Z,4.00
2023-04-02T20:47:37.597Z,4.10
2023-04-02T20:50:05.044Z,4.20
2023-04-02T20:52:33.300Z,4.30
2023-04-02T20:54:59.994Z,4.30
2023-04-02T20:57:32.569Z,4.40
2023-04-02T20:59:59.346Z,4.40
2023-04-02T21:02:25.993Z,4.50
2023-04-02T21:04:57.956Z,4.50
2023-04-02T21:07:24.635Z,4.50
2023-04-02T21:09:54.129Z,4.40
2023-04-02T21:12:20.782Z,4.50
2023-04-02T21:14:48.418Z,4.50
2023-04-02T21:17:15.998Z,4.50
2023-04-02T21:19:46.219Z,4.50
2023-04-02T21:22:12.822Z,4.90
2023-04-02T21:24:39.425Z,4.70
2023-04-02T21:27:06.098Z,4.80
2023-04-02T21:29:32.845Z,4.80
2023-04-02T21:32:01.527Z,4.70
2023-04-02T21:34:32.227Z,4.70
2023-04-02T21:36:59.506Z,4.70
2023-04-02T21:39:26.145Z,4.70
2023-04-02T21:41:53.378Z,4.70
2023-04-02T21:44:22.377Z,4.70
2023-04-02T21:46:51.898Z,4.70
2023-04-02T21:49:22.430Z,4.70
2023-04-02T21:51:51.463Z,4.70
2023-04-02T21:54:18.502Z,4.70
2023-04-02T21:56:46.657Z,4.70
2023-04-02T21:59:15.901Z,4.70
2023-04-02T22:01:49.220Z,4.60
2023-04-02T22:04:25.251Z,4.50
2023-04-02T22:06:53.093Z,4.50
2023-04-02T22:09:26.031Z,4.40
2023-04-02T22:11:58.631Z,4.40
2023-04-02T22:14:25.359Z,4.40
2023-04-02T22:16:52.232Z,4.40
2023-04-02T22:19:19.191Z,4.30
2023-04-02T22:21:46.291Z,4.40
2023-04-02T22:24:15.941Z,4.30
2023-04-02T22:26:44.087Z,4.20
2023-04-02T22:29:18.906Z,4.20
2023-04-02T22:31:45.761Z,4.20
2023-04-02T22:34:12.425Z,4.10
2023-04-02T22:36:39.048Z,4.20
2023-04-02T22:39:09.593Z,4.20
2023-04-02T22:41:36.240Z,4.20
2023-04-02T22:44:03.442Z,4.20
2023-04-02T22:46:31.326Z,4.20
2023-04-02T22:48:58.628Z,4.20
2023-04-02T22:51:27.601Z,4.20
2023-04-02T22:53:56.080Z,4.20
2023-04-02T22:56:31.637Z,4.20
2023-04-02T22:58:59.432Z,4.20
2023-04-02T23:01:30.901Z,4.30
2023-04-02T23:03:59.438Z,4.30
2023-04-02T23:06:27.291Z,4.30
2023-04-02T23:08:54.007Z,4.30
2023-04-02T23:11:25.836Z,4.30
2023-04-02T23:13:56.577Z,4.40
2023-04-02T23:16:26.495Z,4.40
2023-04-02T23:18:54.019Z,4.40
2023-04-02T23:21:21.623Z,4.40
2023-04-02T23:23:48.694Z,4.40
2023-04-02T23:26:22.808Z,4.40
2023-04-02T23:28:50.664Z,4.40
2023-04-02T23:31:21.467Z,4.40
2023-04-02T23:33:48.985Z,4.50
2023-04-02T23:36:27.214Z,4.80
2023-04-02T23:38:57.407Z,4.50
2023-04-02T23:41:26.661Z,4.60
2023-04-02T23:43:57.732Z,4.60
2023-04-02T23:46:25.376Z,4.60
2023-04-02T23:48:52.936Z,4.60
2023-04-02T23:51:20.455Z,4.70
2023-04-02T23:53:48.533Z,4.70
2023-04-02T23:56:15.775Z,4.70
2023-04-02T23:58:42.520Z,4.80
